createdAt,value
2018-12-02T00:02:01.100Z,39.60
2018-12-02T00:04:29.209Z,36.43
2018-12-02T00:06:57.369Z,34.00
2018-12-02T00:09:25.487Z,32.53
2018-12-02T00:11:53.609Z,39.67
2018-12-02T00:14:21.720Z,39.53
2018-12-02T00:16:49.866Z,44.57
2018-12-02T00:19:17.965Z,37.70
2018-12-02T00:21:46.069Z,38.70
2018-12-02T00:24:14.216Z,41.67
2018-12-02T00:26:42.309Z,39.57
2018-12-02T00:29:10.423Z,44.00
2018-12-02T00:31:38.509Z,41.43
2018-12-02T00:34:06.669Z,43.30
2018-12-02T00:36:34.793Z,40.37
2018-12-02T00:39:03.013Z,38.50
2018-12-02T00:41:31.121Z,42.17
2018-12-02T00:43:59.275Z,42.67
2018-12-02T00:46:27.374Z,43.40
2018-12-02T00:48:55.513Z,46.40
2018-12-02T00:51:23.691Z,47.97
2018-12-02T00:53:51.777Z,44.00
2018-12-02T00:56:19.346Z,48.53
2018-12-02T00:58:47.485Z,43.43
2018-12-02T01:01:15.641Z,50.50
2018-12-02T01:03:43.769Z,52.63
2018-12-02T01:06:11.903Z,46.90
2018-12-02T01:08:40.069Z,47.10
2018-12-02T01:11:08.160Z,56.13
2018-12-02T01:13:36.265Z,52.50
2018-12-02T01:16:04.389Z,45.17
2018-12-02T01:18:32.494Z,46.40
2018-12-02T01:21:00.629Z,50.73
2018-12-02T01:23:28.723Z,52.13
2018-12-02T01:25:56.815Z,44.37
2018-12-02T01:28:24.934Z,41.57
2018-12-02T01:30:53.049Z,41.93
2018-12-02T01:33:21.141Z,38.40
2018-12-02T01:35:49.280Z,52.00
2018-12-02T01:38:17.367Z,44.87
2018-12-02T01:40:48.438Z,46.10
2018-12-02T01:43:16.553Z,43.27
2018-12-02T01:45:44.669Z,49.73
2018-12-02T01:48:12.779Z,45.10
2018-12-02T01:50:40.900Z,46.73
2018-12-02T01:53:09.015Z,43.37
2018-12-02T01:55:37.113Z,53.20
2018-12-02T01:58:05.300Z,51.87
2018-12-02T02:00:33.394Z,49.13
2018-12-02T02:03:01.538Z,54.20
2018-12-02T02:05:29.650Z,58.87
2018-12-02T02:07:57.769Z,60.57
2018-12-02T02:10:26.363Z,56.27
2018-12-02T02:12:54.475Z,66.03
2018-12-02T02:15:22.615Z,63.00
2018-12-02T02:17:50.697Z,69.73
2018-12-02T02:20:19.982Z,68.17
2018-12-02T02:22:48.103Z,70.77
2018-12-02T02:25:16.737Z,65.77
2018-12-02T02:27:45.458Z,73.93
2018-12-02T02:30:14.098Z,74.77
2018-12-02T02:32:42.219Z,69.97
2018-12-02T02:35:10.563Z,73.30
2018-12-02T02:37:38.726Z,70.53
2018-12-02T02:40:16.069Z,71.47
2018-12-02T02:42:44.194Z,75.33
2018-12-02T02:45:12.676Z,77.60
2018-12-02T02:47:40.795Z,72.57
2018-12-02T02:50:15.935Z,73.93
2018-12-02T02:52:44.592Z,73.60
2018-12-02T02:55:12.694Z,75.90
2018-12-02T02:57:40.846Z,76.80
2018-12-02T03:00:12.666Z,77.03
2018-12-02T03:02:40.755Z,66.97
2018-12-02T03:05:09.343Z,60.57
2018-12-02T03:07:37.437Z,60.93
2018-12-02T03:10:09.377Z,64.37
2018-12-02T03:12:37.534Z,60.73
2018-12-02T03:15:06.537Z,58.10
2018-12-02T03:17:34.646Z,56.37
2018-12-02T03:20:03.009Z,65.73
2018-12-02T03:22:31.140Z,57.73
2018-12-02T03:24:59.237Z,61.27
2018-12-02T03:27:27.351Z,67.13
2018-12-02T03:29:55.444Z,71.87
2018-12-02T03:32:23.546Z,60.87
2018-12-02T03:34:51.704Z,59.90
2018-12-02T03:37:19.816Z,60.83
2018-12-02T03:39:47.969Z,63.90
2018-12-02T03:42:16.109Z,57.03
2018-12-02T03:44:44.210Z,62.07
2018-12-02T03:47:12.329Z,58.63
2018-12-02T03:49:40.460Z,48.60
2018-12-02T03:52:08.564Z,51.63
2018-12-02T03:54:36.701Z,55.50
2018-12-02T03:57:04.890Z,47.33
2018-12-02T03:59:32.980Z,44.10
2018-12-02T04:02:01.146Z,41.60
2018-12-02T04:04:29.244Z,44.37
2018-12-02T04:06:57.330Z,37.20
2018-12-02T04:09:25.429Z,42.97
2018-12-02T04:11:53.552Z,38.73
2018-12-02T04:14:21.686Z,35.43
2018-12-02T04:16:49.786Z,34.47
2018-12-02T04:19:17.937Z,34.23
2018-12-02T04:21:46.109Z,32.97
2018-12-02T04:24:14.281Z,36.33
2018-12-02T04:26:42.405Z,32.67
2018-12-02T04:29:10.526Z,32.43
2018-12-02T04:31:38.617Z,37.37
2018-12-02T04:34:06.793Z,37.53
2018-12-02T04:36:34.893Z,37.00
2018-12-02T04:39:03.046Z,36.07
2018-12-02T04:41:31.153Z,33.83
2018-12-02T04:43:59.261Z,22.30
2018-12-02T04:46:27.434Z,21.40
2018-12-02T04:48:55.545Z,23.27
2018-12-02T04:51:23.676Z,27.83
2018-12-02T04:53:51.769Z,24.30
2018-12-02T04:56:19.938Z,26.40
2018-12-02T04:58:48.035Z,18.53
2018-12-02T05:01:16.169Z,12.67
2018-12-02T05:03:44.362Z,10.07
2018-12-02T05:06:12.462Z,10.10
2018-12-02T05:08:40.600Z,10.37
2018-12-02T05:11:08.753Z,8.90
2018-12-02T05:13:36.852Z,8.47
2018-12-02T05:16:05.009Z,10.53
2018-12-02T05:18:33.123Z,10.07
2018-12-02T05:21:01.254Z,8.73
2018-12-02T05:23:29.345Z,7.70
2018-12-02T05:25:57.458Z,8.20
2018-12-02T05:28:25.578Z,8.97
2018-12-02T05:30:53.660Z,8.57
2018-12-02T05:33:21.941Z,10.30
2018-12-02T05:35:50.036Z,10.07
2018-12-02T05:38:18.128Z,8.60
2018-12-02T05:40:46.267Z,9.27
2018-12-02T05:43:14.388Z,10.47
2018-12-02T05:45:42.521Z,10.60
2018-12-02T05:48:10.666Z,10.27
2018-12-02T05:50:38.826Z,10.57
2018-12-02T05:53:06.921Z,13.47
2018-12-02T05:55:35.873Z,13.07
2018-12-02T05:58:04.069Z,16.03
2018-12-02T06:00:32.166Z,16.33
2018-12-02T06:03:00.319Z,18.60
2018-12-02T06:05:28.499Z,18.10
2018-12-02T06:07:56.641Z,22.07
2018-12-02T06:10:24.772Z,23.53
2018-12-02T06:12:52.897Z,33.63
2018-12-02T06:15:21.154Z,33.63
2018-12-02T06:17:49.270Z,36.00
2018-12-02T06:20:19.664Z,31.20
2018-12-02T06:22:47.917Z,35.03
2018-12-02T06:25:16.029Z,30.57
2018-12-02T06:27:44.241Z,33.83
2018-12-02T06:30:14.916Z,36.57
2018-12-02T06:32:43.013Z,35.10
2018-12-02T06:35:11.653Z,35.77
2018-12-02T06:37:39.736Z,33.70
2018-12-02T06:40:14.985Z,30.40
2018-12-02T06:42:43.088Z,26.97
2018-12-02T06:45:11.645Z,29.07
2018-12-02T06:47:39.760Z,26.90
2018-12-02T06:50:12.509Z,35.10
2018-12-02T06:52:40.609Z,32.80
2018-12-02T06:55:09.968Z,35.03
2018-12-02T06:57:38.088Z,38.47
2018-12-02T07:00:12.532Z,36.50
2018-12-02T07:02:46.270Z,37.97
2018-12-02T07:05:16.893Z,31.27
2018-12-02T07:07:45.073Z,33.70
2018-12-02T07:10:13.253Z,27.67
2018-12-02T07:12:41.371Z,30.37
2018-12-02T07:15:09.494Z,23.70
2018-12-02T07:17:38.364Z,25.70
2018-12-02T07:20:10.472Z,33.20
2018-12-02T07:22:40.097Z,21.43
2018-12-02T07:25:08.265Z,26.30
2018-12-02T07:27:36.378Z,23.80
2018-12-02T07:30:04.929Z,26.27
2018-12-02T07:32:33.013Z,33.83
2018-12-02T07:35:01.128Z,26.57
2018-12-02T07:37:29.229Z,26.57
2018-12-02T07:40:02.954Z,30.00
2018-12-02T07:42:31.112Z,26.53
2018-12-02T07:44:59.208Z,24.07
2018-12-02T07:47:27.372Z,27.27
2018-12-02T07:49:55.466Z,32.47
2018-12-02T07:52:23.597Z,21.90
2018-12-02T07:54:51.692Z,29.23
2018-12-02T07:57:19.840Z,23.13
2018-12-02T07:59:47.937Z,21.13
2018-12-02T08:02:16.041Z,22.83
2018-12-02T08:04:44.160Z,18.20
2018-12-02T08:07:12.254Z,23.63
2018-12-02T08:09:40.554Z,20.87
2018-12-02T08:12:08.652Z,14.17
2018-12-02T08:14:36.752Z,19.13
2018-12-02T08:17:04.896Z,22.03
2018-12-02T08:19:32.997Z,23.53
2018-12-02T08:22:01.089Z,21.23
2018-12-02T08:24:29.238Z,21.80
2018-12-02T08:26:57.336Z,28.93
2018-12-02T08:29:25.424Z,29.37
2018-12-02T08:31:53.529Z,25.83
2018-12-02T08:34:21.643Z,25.00
2018-12-02T08:36:49.753Z,27.13
2018-12-02T08:39:17.890Z,24.83
2018-12-02T08:41:45.994Z,21.27
2018-12-02T08:44:14.133Z,22.93
2018-12-02T08:46:42.253Z,22.23
2018-12-02T08:49:10.367Z,22.37
2018-12-02T08:51:38.458Z,23.53
2018-12-02T08:54:06.569Z,24.93
2018-12-02T08:56:34.649Z,17.50
2018-12-02T08:59:02.758Z,19.47
2018-12-02T09:01:30.860Z,15.87
2018-12-02T09:03:58.953Z,26.70
2018-12-02T09:06:27.087Z,22.07
2018-12-02T09:08:55.192Z,23.87
2018-12-02T09:11:23.355Z,21.23
2018-12-02T09:13:51.445Z,17.23
2018-12-02T09:16:19.546Z,20.33
2018-12-02T09:18:47.628Z,19.30
2018-12-02T09:21:15.727Z,19.90
2018-12-02T09:23:47.428Z,15.97
2018-12-02T09:26:11.953Z,16.67
2018-12-02T09:28:40.071Z,19.50
2018-12-02T09:31:08.246Z,22.87
2018-12-02T09:33:36.377Z,20.63
2018-12-02T09:36:04.858Z,25.53
2018-12-02T09:38:32.977Z,20.33
2018-12-02T09:41:01.113Z,24.83
2018-12-02T09:43:29.211Z,21.90
2018-12-02T09:45:57.367Z,17.87
2018-12-02T09:48:25.457Z,24.10
2018-12-02T09:50:53.589Z,24.03
2018-12-02T09:53:21.683Z,19.30
2018-12-02T09:55:49.832Z,18.27
2018-12-02T09:58:24.884Z,25.40
2018-12-02T10:00:53.461Z,20.63
2018-12-02T10:03:21.554Z,20.00
2018-12-02T10:05:49.655Z,23.33
2018-12-02T10:08:17.753Z,21.47
2018-12-02T10:10:45.853Z,22.73
2018-12-02T10:13:14.895Z,18.83
2018-12-02T10:15:43.234Z,18.47
2018-12-02T10:18:11.405Z,29.73
2018-12-02T10:20:39.511Z,24.70
2018-12-02T10:23:07.740Z,22.53
2018-12-02T10:25:35.861Z,26.97
2018-12-02T10:28:04.032Z,26.33
2018-12-02T10:30:32.157Z,20.97
2018-12-02T10:33:00.245Z,24.53
2018-12-02T10:35:28.370Z,25.03
2018-12-02T10:37:56.481Z,24.87
2018-12-02T10:40:25.197Z,25.57
2018-12-02T10:42:53.309Z,27.77
2018-12-02T10:45:21.924Z,28.97
2018-12-02T10:47:52.655Z,22.33
2018-12-02T10:50:21.449Z,37.47
2018-12-02T10:52:49.916Z,26.83
2018-12-02T10:55:33.966Z,28.47
2018-12-02T10:58:02.049Z,21.27
2018-12-02T11:00:35.733Z,26.53
2018-12-02T11:03:04.211Z,28.80
2018-12-02T11:05:32.374Z,30.20
2018-12-02T11:08:00.520Z,23.47
2018-12-02T11:10:28.731Z,34.40
2018-12-02T11:12:57.000Z,31.53
2018-12-02T11:15:25.222Z,35.67
2018-12-02T11:17:53.464Z,29.97
2018-12-02T11:20:21.634Z,29.87
2018-12-02T11:22:49.772Z,32.80
2018-12-02T11:25:17.879Z,43.40
2018-12-02T11:27:46.029Z,27.33
2018-12-02T11:30:14.773Z,33.67
2018-12-02T11:32:43.230Z,33.43
2018-12-02T11:35:12.002Z,36.93
2018-12-02T11:37:40.186Z,26.43
2018-12-02T11:40:09.985Z,38.90
2018-12-02T11:42:38.133Z,31.53
2018-12-02T11:45:08.400Z,34.33
2018-12-02T11:47:36.665Z,29.73
2018-12-02T11:50:07.182Z,29.37
2018-12-02T11:52:35.325Z,22.47
2018-12-02T11:55:03.450Z,28.33
2018-12-02T11:57:31.565Z,25.40
2018-12-02T11:59:59.708Z,20.90
2018-12-02T12:02:27.869Z,26.70
2018-12-02T12:04:56.009Z,28.60
2018-12-02T12:07:24.128Z,22.50
2018-12-02T12:09:53.098Z,27.97
2018-12-02T12:12:21.359Z,24.67
2018-12-02T12:14:49.565Z,26.43
2018-12-02T12:17:17.732Z,27.07
2018-12-02T12:19:45.907Z,25.40
2018-12-02T12:22:14.081Z,23.63
2018-12-02T12:24:42.228Z,18.33
2018-12-02T12:27:10.384Z,20.33
2018-12-02T12:29:38.508Z,21.17
2018-12-02T12:32:06.677Z,23.10
2018-12-02T12:34:34.830Z,30.87
2018-12-02T12:37:03.481Z,29.00
2018-12-02T12:39:31.694Z,20.87
2018-12-02T12:41:59.854Z,23.23
2018-12-02T12:44:28.027Z,24.83
2018-12-02T12:46:56.215Z,30.97
2018-12-02T12:49:24.403Z,35.43
2018-12-02T12:51:52.546Z,28.57
2018-12-02T12:54:20.673Z,28.13
2018-12-02T12:56:48.806Z,28.90
2018-12-02T12:59:17.020Z,29.77
2018-12-02T13:01:45.169Z,23.60
2018-12-02T13:04:13.646Z,29.60
2018-12-02T13:06:41.785Z,25.67
2018-12-02T13:09:09.960Z,22.53
2018-12-02T13:11:38.046Z,22.27
2018-12-02T13:14:06.160Z,25.40
2018-12-02T13:16:34.315Z,29.80
2018-12-02T13:19:02.539Z,25.20
2018-12-02T13:21:30.648Z,15.40
2018-12-02T13:23:58.865Z,19.90
2018-12-02T13:26:27.086Z,27.20
2018-12-02T13:28:55.229Z,20.73
2018-12-02T13:31:23.389Z,19.13
2018-12-02T13:33:51.531Z,17.47
2018-12-02T13:36:19.638Z,19.23
2018-12-02T13:38:47.739Z,20.67
2018-12-02T13:41:15.896Z,20.43
2018-12-02T13:43:44.045Z,18.00
2018-12-02T13:46:12.220Z,18.93
2018-12-02T13:48:40.519Z,18.87
2018-12-02T13:51:08.679Z,20.13
2018-12-02T13:53:42.281Z,16.53
2018-12-02T13:56:10.394Z,16.47
2018-12-02T13:58:38.521Z,18.60
2018-12-02T14:01:06.706Z,17.43
2018-12-02T14:03:34.873Z,16.80
2018-12-02T14:06:03.091Z,18.43
2018-12-02T14:08:31.243Z,18.17
2018-12-02T14:10:59.409Z,18.40
2018-12-02T14:13:28.020Z,20.70
2018-12-02T14:16:00.423Z,17.93
2018-12-02T14:18:30.565Z,12.27
2018-12-02T14:20:58.745Z,20.10
2018-12-02T14:23:26.849Z,12.87
2018-12-02T14:25:55.948Z,14.70
2018-12-02T14:28:27.146Z,13.90
2018-12-02T14:30:55.325Z,12.70
2018-12-02T14:33:23.424Z,17.30
2018-12-02T14:35:51.628Z,20.13
2018-12-02T14:38:19.734Z,13.37
2018-12-02T14:40:47.846Z,14.63
2018-12-02T14:43:15.988Z,14.50
2018-12-02T14:45:44.105Z,10.40
2018-12-02T14:48:12.241Z,13.53
2018-12-02T14:50:40.386Z,11.03
2018-12-02T14:53:08.588Z,12.07
2018-12-02T14:55:36.769Z,15.13
2018-12-02T14:58:05.221Z,9.23
2018-12-02T15:00:33.416Z,13.47
2018-12-02T15:03:01.524Z,10.93
2018-12-02T15:05:29.668Z,11.17
2018-12-02T15:07:57.825Z,15.87
2018-12-02T15:10:26.009Z,13.83
2018-12-02T15:12:54.206Z,9.67
2018-12-02T15:15:22.305Z,12.73
2018-12-02T15:17:50.699Z,13.83
2018-12-02T15:20:19.478Z,12.37
2018-12-02T15:22:48.414Z,16.33
2018-12-02T15:25:16.557Z,14.23
2018-12-02T15:27:44.920Z,15.70
2018-12-02T15:30:15.415Z,10.77
2018-12-02T15:32:46.335Z,17.13
2018-12-02T15:35:14.539Z,12.50
2018-12-02T15:37:42.677Z,12.40
2018-12-02T15:40:11.610Z,13.70
2018-12-02T15:42:40.697Z,13.47
2018-12-02T15:45:10.513Z,13.40
2018-12-02T15:47:38.695Z,14.93
2018-12-02T15:50:09.950Z,9.93
2018-12-02T15:52:38.090Z,11.83
2018-12-02T15:55:07.235Z,15.33
2018-12-02T15:57:35.479Z,9.70
2018-12-02T16:00:05.174Z,10.37
2018-12-02T16:02:41.666Z,12.80
2018-12-02T17:39:15.291Z,32.70
2018-12-02T17:41:45.703Z,24.80
2018-12-02T17:44:13.894Z,27.00
2018-12-02T17:46:43.392Z,24.30
2018-12-02T17:49:12.041Z,24.77
2018-12-02T17:51:40.989Z,23.13
2018-12-02T17:54:09.085Z,16.90
2018-12-02T17:56:37.209Z,17.37
2018-12-02T17:59:05.586Z,17.67
2018-12-02T18:01:33.786Z,20.27
2018-12-02T18:04:02.009Z,16.50
2018-12-02T18:06:30.238Z,19.40
2018-12-02T18:08:58.398Z,23.77
2018-12-02T18:11:27.368Z,21.97
2018-12-02T18:13:55.498Z,22.10
2018-12-02T18:16:24.032Z,20.10
2018-12-02T18:18:52.295Z,19.90
2018-12-02T18:21:20.441Z,18.27
2018-12-02T18:23:48.677Z,23.90
2018-12-02T18:26:16.887Z,15.23
2018-12-02T18:28:45.421Z,21.57
2018-12-02T18:31:13.615Z,21.00
2018-12-02T18:33:41.764Z,19.73
2018-12-02T18:36:13.470Z,19.53
2018-12-02T18:38:42.552Z,23.90
2018-12-02T18:41:15.764Z,21.97
2018-12-02T18:43:43.905Z,25.87
2018-12-02T18:46:12.698Z,30.47
2018-12-02T18:48:40.871Z,17.90
2018-12-02T18:51:09.006Z,31.07
2018-12-02T18:53:37.121Z,26.10
2018-12-02T18:56:05.796Z,27.13
2018-12-02T18:58:35.352Z,27.70
2018-12-02T19:01:03.585Z,27.30
2018-12-02T19:03:31.852Z,28.73
2018-12-02T19:05:59.978Z,22.87
2018-12-02T19:08:28.339Z,22.53
2018-12-02T19:10:57.114Z,24.43
2018-12-02T19:13:25.264Z,26.23
2018-12-02T19:15:53.540Z,21.83
2018-12-02T19:18:21.856Z,36.07
2018-12-02T19:20:50.982Z,21.73
2018-12-02T19:23:20.521Z,28.23
2018-12-02T19:25:48.698Z,22.47
2018-12-02T19:28:16.870Z,29.93
2018-12-02T19:30:45.124Z,30.77
2018-12-02T19:33:15.021Z,19.37
2018-12-02T19:35:43.163Z,29.07
2018-12-02T19:38:12.444Z,24.43
2018-12-02T19:40:40.576Z,31.03
2018-12-02T19:43:08.702Z,23.13
2018-12-02T19:45:36.821Z,23.87
2018-12-02T19:48:05.147Z,30.47
2018-12-02T19:50:33.425Z,23.97
2018-12-02T19:53:01.574Z,21.47
2018-12-02T19:55:29.706Z,26.73
2018-12-02T19:57:57.896Z,29.27
2018-12-02T20:00:27.044Z,21.10
2018-12-02T20:02:55.233Z,21.30
2018-12-02T20:05:23.398Z,27.30
2018-12-02T20:07:52.459Z,18.47
2018-12-02T20:10:21.553Z,19.47
2018-12-02T20:12:49.733Z,21.13
2018-12-02T20:15:17.983Z,21.67
2018-12-02T20:17:47.353Z,24.83
2018-12-02T20:20:21.810Z,21.83
2018-12-02T20:22:50.193Z,17.73
2018-12-02T20:25:20.328Z,22.53
2018-12-02T20:27:49.117Z,16.77
2018-12-02T20:30:18.025Z,24.20
2018-12-02T20:32:46.255Z,20.20
2018-12-02T20:35:14.854Z,18.07
2018-12-02T20:37:43.177Z,20.77
2018-12-02T20:40:12.907Z,17.37
2018-12-02T20:42:41.002Z,24.10
2018-12-02T20:45:09.784Z,20.23
2018-12-02T20:47:37.895Z,22.00
2018-12-02T20:50:07.146Z,22.73
2018-12-02T20:52:35.318Z,27.07
2018-12-02T20:55:06.270Z,23.80
2018-12-02T20:57:34.951Z,33.50
2018-12-02T21:00:03.135Z,29.23
2018-12-02T21:02:31.404Z,36.33
2018-12-02T21:05:00.028Z,23.63
2018-12-02T21:07:28.219Z,25.37
2018-12-02T21:09:56.474Z,21.57
2018-12-02T21:12:24.789Z,27.77
2018-12-02T21:14:53.047Z,33.30
2018-12-02T21:17:21.159Z,30.80
2018-12-02T21:19:49.369Z,33.27
2018-12-02T21:22:18.014Z,28.27
2018-12-02T21:24:46.405Z,23.53
2018-12-02T21:27:15.426Z,20.60
2018-12-02T21:29:43.681Z,23.17
2018-12-02T21:32:11.860Z,22.63
2018-12-02T21:34:40.579Z,24.27
2018-12-02T21:37:09.134Z,26.13
2018-12-02T21:39:37.323Z,24.90
2018-12-02T21:42:06.058Z,32.37
2018-12-02T21:44:34.334Z,26.07
2018-12-02T21:47:02.493Z,24.97
2018-12-02T21:49:30.697Z,30.10
2018-12-02T21:51:58.877Z,26.13
2018-12-02T21:54:27.072Z,21.97
2018-12-02T21:56:55.231Z,26.73
2018-12-02T21:59:23.332Z,24.80
2018-12-02T22:01:52.375Z,37.17
2018-12-02T22:04:20.652Z,32.87
2018-12-02T22:06:48.936Z,25.60
2018-12-02T22:09:17.038Z,29.83
2018-12-02T22:11:45.534Z,30.47
2018-12-02T22:14:13.714Z,31.40
2018-12-02T22:16:42.574Z,23.87
2018-12-02T22:19:11.469Z,22.97
2018-12-02T22:21:39.632Z,23.87
2018-12-02T22:24:07.899Z,19.53
2018-12-02T22:26:36.116Z,14.47
2018-12-02T22:29:04.475Z,18.20
2018-12-02T22:31:32.766Z,14.70
2018-12-02T22:34:01.113Z,20.17
2018-12-02T22:36:30.228Z,16.87
2018-12-02T22:38:58.704Z,13.77
2018-12-02T22:41:26.901Z,15.13
2018-12-02T22:43:55.019Z,18.27
2018-12-02T22:46:23.977Z,16.90
2018-12-02T22:48:53.540Z,19.87
2018-12-02T22:51:21.709Z,23.23
2018-12-02T22:53:50.928Z,19.40
2018-12-02T22:56:19.693Z,22.03
2018-12-02T22:58:48.095Z,23.30
2018-12-02T23:01:21.734Z,20.17
2018-12-02T23:03:50.816Z,20.77
2018-12-02T23:06:18.920Z,25.37
2018-12-02T23:08:47.117Z,22.80
2018-12-02T23:11:15.277Z,16.77
2018-12-02T23:13:43.557Z,19.37
2018-12-02T23:16:11.669Z,17.10
2018-12-02T23:18:39.837Z,20.47
2018-12-02T23:21:08.031Z,20.77
2018-12-02T23:23:36.184Z,22.50
2018-12-02T23:26:04.431Z,21.17
2018-12-02T23:28:32.535Z,19.73
2018-12-02T23:31:00.700Z,19.40
2018-12-02T23:33:29.601Z,16.97
2018-12-02T23:35:57.739Z,24.37
2018-12-02T23:38:25.834Z,20.63
2018-12-02T23:40:54.010Z,19.60
2018-12-02T23:43:22.113Z,34.53
2018-12-02T23:45:50.242Z,24.13
2018-12-02T23:48:18.332Z,29.43
2018-12-02T23:50:46.463Z,28.10
2018-12-02T23:53:14.646Z,29.97
2018-12-02T23:55:42.786Z,26.43
2018-12-02T23:58:10.887Z,28.63
